Главная страница
METAR-TAF:

METAR-TAF

Аэропорты :

Chautauqua County/Jamestown Airport

Джеймстаун, Нью-Йорк, США

широта: 42-09N, долгота: 079-16W, высота над уровнем моря: 525 м

Текущие метеонаблюдения

Эта сводка был подготовлена 15 минут назад, в 11:56 UTC
Ветер 6 Узел от южный
Температура 12°C
Влажность 100%
Давление 1016 hPa
Видимость: 9.7 км
ясное небо
дымка

METAR: KJHW 241156Z AUTO 19006KT 6SM BR CLR 12/12 A3001 RMK AO2 SLP166 T01170117 10128 20111 53004

Время: 08:11 (12:11 UTC)

Прогноз

Эта сводка был подготовлена 51 минут назад, в 11:20 UTC
Прогноз действительный с 24-го 12 UTC до 25-го 12 UTC
Ветер 3 Узел переменных направлений
Видимость: 9.7 км
Рассеянная облачность на высоте 25000 фута
дымка
С 24-го 2300 UTC
Ветер 4 Узел от юго-западный
Видимость: 10 км
небольшая облачность на высоте 25000 фута
С 25-го 0600 UTC
Ветер 3 Узел переменных направлений
Видимость: 4.8 км
ясное небо
дымка

TAF: KJHW 241120Z 2412/2512 VRB03KT 6SM BR BKN250 FM242300 23004KT P6SM FEW250 FM250600 VRB03KT 3SM BR SKC

Метеонаблюдения и прогнозы для более 4000 аэропортов (сводки METAR и TAF).

Имеющиеся станции представлены на карте желтыми и красными точками.

Чтобы увидеть название станции, наведите на нее мышь.

Затем щелкните, чтобы увидеть метеонаблюдения и метеопрогнозы.

Управление картой: чтобы увеличить масштаб, щелкните зеленые кнопки с черным крестиком; чтобы уменьшить масштаб, щелкните зеленую кнопку с тире; для просмотра соседних карт щелкайте зеленые стрелки.


METAR-TAF: